Portada
METAR-TAF:

METAR-TAF

Aeroports :

Mataram, Indonèsia

latitud: 08-45-29S, longitud: 116-16-35E, altitud: 97 m

Observació

L'informe es va fer fa 37 minuts, a les 13:00 UTC
Vent 6 kt del Est, variant entre Est/Nord-Est i Est/Sud-Est
Temperatura 26°C
Humitat 89%
Pressió 1010 hPa
Visibilitat: 7000 m
Escasses núvols a una alçada de 1600 ft

METAR: WADL 141300Z 09006KT 060V120 7000 FEW016 26/24 Q1010 NOSIG

Hora: 20:37 (13:37 UTC)

Pronòstic

L'informe es va fer fa 2 hores i 37 minuts, a les 11:00 UTC
Pronòstic vàlid del 14 a les 12 UTC al 15 a les 12 UTC
Vent 5 kt del Est/Sud-Est
Visibilitat: 7000 m
Núvols disperses a una alçada de 1600 ft

TAF: WADL 141100Z 1412/1512 12005KT 7000 SCT016

Observacions i pronòstics meteorològics de més de 4000 aeroports (METAR i TAF).

Les estacions disponibles són els punts grocs i vermells al mapa.

Posi el ratolí al punt desitjat per veure el nom de l'estació.

Feu clic per veure les observacions i els pronòstics meteorològics.

Per canviar el mapa: feu clic els botons verds amb una creu de color negre per apropar; al botó verd amb un guió per allunyar la imatge; o en les fletxes verdes per a mapes adjacents.


METAR-TAF: